sensor_id;sensor_type;location;lat;lon;timestamp;P1;durP1;ratioP1;P2;durP2;ratioP2
11066;SDS011;29763;50.904;5.530;2023-07-28T00:02:04;2.22;;;1.80;;
11066;SDS011;29763;50.904;5.530;2023-07-28T00:04:30;4.05;;;1.92;;
11066;SDS011;29763;50.904;5.530;2023-07-28T00:06:56;1.83;;;1.70;;
11066;SDS011;29763;50.904;5.530;2023-07-28T00:09:22;3.35;;;1.65;;
11066;SDS011;29763;50.904;5.530;2023-07-28T00:11:49;2.50;;;1.80;;
11066;SDS011;29763;50.904;5.530;2023-07-28T00:14:15;2.17;;;1.98;;
11066;SDS011;29763;50.904;5.530;2023-07-28T00:16:41;2.03;;;1.80;;
11066;SDS011;29763;50.904;5.530;2023-07-28T00:19:09;1.88;;;1.73;;
11066;SDS011;29763;50.904;5.530;2023-07-28T00:21:35;2.38;;;1.90;;
11066;SDS011;29763;50.904;5.530;2023-07-28T00:24:06;2.85;;;1.90;;
11066;SDS011;29763;50.904;5.530;2023-07-28T00:26:34;3.03;;;1.88;;
11066;SDS011;29763;50.904;5.530;2023-07-28T00:28:59;6.90;;;1.80;;
11066;SDS011;29763;50.904;5.530;2023-07-28T00:31:25;3.42;;;1.95;;
11066;SDS011;29763;50.904;5.530;2023-07-28T00:33:51;2.08;;;1.80;;
11066;SDS011;29763;50.904;5.530;2023-07-28T00:36:16;1.85;;;1.75;;
11066;SDS011;29763;50.904;5.530;2023-07-28T00:38:42;3.35;;;1.90;;
11066;SDS011;29763;50.904;5.530;2023-07-28T00:41:08;2.63;;;2.13;;
11066;SDS011;29763;50.904;5.530;2023-07-28T00:43:35;3.67;;;2.13;;
11066;SDS011;29763;50.904;5.530;2023-07-28T00:46:01;2.85;;;1.95;;
11066;SDS011;29763;50.904;5.530;2023-07-28T00:48:28;1.92;;;1.83;;
11066;SDS011;29763;50.904;5.530;2023-07-28T00:50:54;2.50;;;2.20;;
11066;SDS011;29763;50.904;5.530;2023-07-28T00:53:23;2.53;;;2.17;;
11066;SDS011;29763;50.904;5.530;2023-07-28T00:55:50;4.55;;;2.10;;
11066;SDS011;29763;50.904;5.530;2023-07-28T00:58:17;2.50;;;2.30;;
11066;SDS011;29763;50.904;5.530;2023-07-28T01:00:43;2.22;;;2.03;;
11066;SDS011;29763;50.904;5.530;2023-07-28T01:03:17;5.10;;;2.10;;
11066;SDS011;29763;50.904;5.530;2023-07-28T01:05:47;2.42;;;2.13;;
11066;SDS011;29763;50.904;5.530;2023-07-28T01:08:48;2.67;;;2.47;;
11066;SDS011;29763;50.904;5.530;2023-07-28T01:11:21;4.15;;;2.50;;
11066;SDS011;29763;50.904;5.530;2023-07-28T01:13:49;2.60;;;2.40;;
11066;SDS011;29763;50.904;5.530;2023-07-28T01:16:14;3.67;;;2.40;;
11066;SDS011;29763;50.904;5.530;2023-07-28T01:18:43;4.40;;;2.70;;
11066;SDS011;29763;50.904;5.530;2023-07-28T01:21:13;3.35;;;2.50;;
11066;SDS011;29763;50.904;5.530;2023-07-28T01:26:37;3.38;;;2.72;;
11066;SDS011;29763;50.904;5.530;2023-07-28T01:29:05;2.78;;;2.45;;
11066;SDS011;29763;50.904;5.530;2023-07-28T01:31:33;4.68;;;2.63;;
11066;SDS011;29763;50.904;5.530;2023-07-28T01:33:59;3.90;;;3.10;;
11066;SDS011;29763;50.904;5.530;2023-07-28T01:36:26;3.05;;;2.83;;
11066;SDS011;29763;50.904;5.530;2023-07-28T01:38:53;3.67;;;3.03;;
11066;SDS011;29763;50.904;5.530;2023-07-28T01:41:19;5.53;;;3.30;;
11066;SDS011;29763;50.904;5.530;2023-07-28T01:43:44;6.15;;;3.20;;
11066;SDS011;29763;50.904;5.530;2023-07-28T01:46:12;3.75;;;3.30;;
11066;SDS011;29763;50.904;5.530;2023-07-28T01:48:38;4.53;;;3.40;;
11066;SDS011;29763;50.904;5.530;2023-07-28T01:51:04;3.40;;;3.10;;
11066;SDS011;29763;50.904;5.530;2023-07-28T01:53:29;3.40;;;3.10;;
11066;SDS011;29763;50.904;5.530;2023-07-28T01:55:55;3.50;;;3.20;;
11066;SDS011;29763;50.904;5.530;2023-07-28T01:58:21;4.07;;;3.20;;
11066;SDS011;29763;50.904;5.530;2023-07-28T02:00:47;3.25;;;2.80;;
11066;SDS011;29763;50.904;5.530;2023-07-28T02:03:15;3.20;;;2.90;;
11066;SDS011;29763;50.904;5.530;2023-07-28T02:05:41;4.45;;;3.05;;
11066;SDS011;29763;50.904;5.530;2023-07-28T02:08:06;5.18;;;3.20;;
11066;SDS011;29763;50.904;5.530;2023-07-28T02:10:32;3.13;;;2.92;;
11066;SDS011;29763;50.904;5.530;2023-07-28T02:12:58;4.40;;;2.92;;
11066;SDS011;29763;50.904;5.530;2023-07-28T02:15:23;4.00;;;2.67;;
11066;SDS011;29763;50.904;5.530;2023-07-28T02:17:49;3.83;;;2.67;;
11066;SDS011;29763;50.904;5.530;2023-07-28T02:20:15;3.00;;;2.63;;
11066;SDS011;29763;50.904;5.530;2023-07-28T02:22:41;3.65;;;2.78;;
11066;SDS011;29763;50.904;5.530;2023-07-28T02:25:08;5.45;;;2.80;;
11066;SDS011;29763;50.904;5.530;2023-07-28T02:27:38;3.45;;;2.70;;
11066;SDS011;29763;50.904;5.530;2023-07-28T02:30:04;3.50;;;2.50;;
11066;SDS011;29763;50.904;5.530;2023-07-28T02:32:31;2.95;;;2.63;;
11066;SDS011;29763;50.904;5.530;2023-07-28T02:34:57;4.22;;;2.40;;
11066;SDS011;29763;50.904;5.530;2023-07-28T02:37:23;3.17;;;2.60;;
11066;SDS011;29763;50.904;5.530;2023-07-28T02:39:49;3.85;;;2.92;;
11066;SDS011;29763;50.904;5.530;2023-07-28T02:42:15;3.05;;;2.75;;
11066;SDS011;29763;50.904;5.530;2023-07-28T02:44:41;3.15;;;2.80;;
11066;SDS011;29763;50.904;5.530;2023-07-28T02:47:10;3.45;;;3.15;;
11066;SDS011;29763;50.904;5.530;2023-07-28T02:49:35;2.95;;;2.75;;
11066;SDS011;29763;50.904;5.530;2023-07-28T02:52:01;3.88;;;2.92;;
11066;SDS011;29763;50.904;5.530;2023-07-28T02:54:28;3.00;;;2.58;;
11066;SDS011;29763;50.904;5.530;2023-07-28T02:56:54;3.80;;;3.25;;
11066;SDS011;29763;50.904;5.530;2023-07-28T02:59:20;3.28;;;2.97;;
11066;SDS011;29763;50.904;5.530;2023-07-28T03:01:48;3.80;;;3.50;;
11066;SDS011;29763;50.904;5.530;2023-07-28T03:04:17;4.70;;;3.10;;
11066;SDS011;29763;50.904;5.530;2023-07-28T03:06:46;4.78;;;3.63;;
11066;SDS011;29763;50.904;5.530;2023-07-28T03:09:12;4.78;;;3.28;;
11066;SDS011;29763;50.904;5.530;2023-07-28T03:11:38;5.18;;;3.83;;
11066;SDS011;29763;50.904;5.530;2023-07-28T03:14:04;4.95;;;3.85;;
11066;SDS011;29763;50.904;5.530;2023-07-28T03:16:31;4.68;;;3.78;;
11066;SDS011;29763;50.904;5.530;2023-07-28T03:18:58;5.97;;;3.55;;
11066;SDS011;29763;50.904;5.530;2023-07-28T03:21:25;3.83;;;3.50;;
11066;SDS011;29763;50.904;5.530;2023-07-28T03:23:51;4.00;;;3.60;;
11066;SDS011;29763;50.904;5.530;2023-07-28T03:26:16;4.45;;;3.70;;
11066;SDS011;29763;50.904;5.530;2023-07-28T03:28:42;4.75;;;3.70;;
11066;SDS011;29763;50.904;5.530;2023-07-28T03:31:08;4.63;;;3.72;;
11066;SDS011;29763;50.904;5.530;2023-07-28T03:33:37;4.82;;;3.47;;
11066;SDS011;29763;50.904;5.530;2023-07-28T03:36:09;4.90;;;4.00;;
11066;SDS011;29763;50.904;5.530;2023-07-28T03:38:34;6.55;;;4.22;;
11066;SDS011;29763;50.904;5.530;2023-07-28T03:41:00;5.22;;;4.10;;
11066;SDS011;29763;50.904;5.530;2023-07-28T03:43:26;4.93;;;4.53;;
11066;SDS011;29763;50.904;5.530;2023-07-28T03:45:52;4.93;;;4.30;;
11066;SDS011;29763;50.904;5.530;2023-07-28T03:48:18;7.43;;;4.72;;
11066;SDS011;29763;50.904;5.530;2023-07-28T03:50:43;7.45;;;5.00;;
11066;SDS011;29763;50.904;5.530;2023-07-28T03:53:09;5.57;;;5.05;;
11066;SDS011;29763;50.904;5.530;2023-07-28T03:55:35;5.82;;;4.40;;
11066;SDS011;29763;50.904;5.530;2023-07-28T03:58:01;6.10;;;4.63;;
11066;SDS011;29763;50.904;5.530;2023-07-28T04:00:28;7.38;;;4.28;;
11066;SDS011;29763;50.904;5.530;2023-07-28T04:02:55;5.75;;;4.30;;
11066;SDS011;29763;50.904;5.530;2023-07-28T04:05:21;5.60;;;4.35;;
11066;SDS011;29763;50.904;5.530;2023-07-28T04:07:46;4.35;;;4.05;;
11066;SDS011;29763;50.904;5.530;2023-07-28T04:10:12;5.53;;;4.57;;
11066;SDS011;29763;50.904;5.530;2023-07-28T04:12:39;8.63;;;5.13;;
11066;SDS011;29763;50.904;5.530;2023-07-28T04:15:07;5.65;;;5.05;;
11066;SDS011;29763;50.904;5.530;2023-07-28T04:17:33;5.75;;;5.15;;
11066;SDS011;29763;50.904;5.530;2023-07-28T04:19:59;6.32;;;5.72;;
11066;SDS011;29763;50.904;5.530;2023-07-28T04:22:31;7.05;;;5.32;;
11066;SDS011;29763;50.904;5.530;2023-07-28T04:24:56;7.18;;;5.63;;
11066;SDS011;29763;50.904;5.530;2023-07-28T04:27:23;7.40;;;5.95;;
11066;SDS011;29763;50.904;5.530;2023-07-28T04:29:56;11.30;;;6.10;;
11066;SDS011;29763;50.904;5.530;2023-07-28T04:32:24;8.70;;;6.15;;
11066;SDS011;29763;50.904;5.530;2023-07-28T04:34:52;9.20;;;6.05;;
11066;SDS011;29763;50.904;5.530;2023-07-28T04:37:18;10.13;;;5.90;;
11066;SDS011;29763;50.904;5.530;2023-07-28T04:39:44;6.03;;;5.47;;
11066;SDS011;29763;50.904;5.530;2023-07-28T04:42:10;8.07;;;6.25;;
11066;SDS011;29763;50.904;5.530;2023-07-28T04:44:37;9.65;;;5.95;;
11066;SDS011;29763;50.904;5.530;2023-07-28T04:47:06;8.30;;;5.82;;
11066;SDS011;29763;50.904;5.530;2023-07-28T04:49:34;6.15;;;5.47;;
11066;SDS011;29763;50.904;5.530;2023-07-28T04:52:00;7.38;;;5.30;;
11066;SDS011;29763;50.904;5.530;2023-07-28T04:54:26;6.93;;;5.28;;
11066;SDS011;29763;50.904;5.530;2023-07-28T04:56:53;7.13;;;5.32;;
11066;SDS011;29763;50.904;5.530;2023-07-28T04:59:20;5.93;;;5.22;;
11066;SDS011;29763;50.904;5.530;2023-07-28T05:01:47;6.97;;;5.07;;
11066;SDS011;29763;50.904;5.530;2023-07-28T05:04:13;7.03;;;5.07;;
11066;SDS011;29763;50.904;5.530;2023-07-28T05:06:38;5.40;;;4.78;;
11066;SDS011;29763;50.904;5.530;2023-07-28T05:09:04;5.80;;;4.53;;
11066;SDS011;29763;50.904;5.530;2023-07-28T05:11:30;7.88;;;4.28;;
11066;SDS011;29763;50.904;5.530;2023-07-28T05:13:55;8.40;;;4.53;;
11066;SDS011;29763;50.904;5.530;2023-07-28T05:16:22;6.45;;;4.22;;
11066;SDS011;29763;50.904;5.530;2023-07-28T05:18:48;8.40;;;4.10;;
11066;SDS011;29763;50.904;5.530;2023-07-28T05:21:15;4.80;;;3.90;;
11066;SDS011;29763;50.904;5.530;2023-07-28T05:23:42;6.53;;;3.97;;
11066;SDS011;29763;50.904;5.530;2023-07-28T05:26:08;4.32;;;3.92;;
11066;SDS011;29763;50.904;5.530;2023-07-28T05:28:37;7.20;;;3.90;;
11066;SDS011;29763;50.904;5.530;2023-07-28T05:31:09;6.32;;;4.00;;
11066;SDS011;29763;50.904;5.530;2023-07-28T05:33:34;3.67;;;3.38;;
11066;SDS011;29763;50.904;5.530;2023-07-28T05:36:04;4.82;;;3.38;;
11066;SDS011;29763;50.904;5.530;2023-07-28T05:38:37;7.28;;;3.38;;
11066;SDS011;29763;50.904;5.530;2023-07-28T05:41:03;6.35;;;3.72;;
11066;SDS011;29763;50.904;5.530;2023-07-28T05:43:30;4.55;;;3.50;;
11066;SDS011;29763;50.904;5.530;2023-07-28T05:45:58;11.70;;;3.80;;
11066;SDS011;29763;50.904;5.530;2023-07-28T05:48:24;3.78;;;3.30;;
11066;SDS011;29763;50.904;5.530;2023-07-28T05:50:50;5.40;;;3.22;;
11066;SDS011;29763;50.904;5.530;2023-07-28T05:53:18;4.65;;;3.72;;
11066;SDS011;29763;50.904;5.530;2023-07-28T05:55:45;6.03;;;3.65;;
11066;SDS011;29763;50.904;5.530;2023-07-28T05:58:11;3.60;;;3.30;;
11066;SDS011;29763;50.904;5.530;2023-07-28T06:00:38;4.25;;;3.63;;
11066;SDS011;29763;50.904;5.530;2023-07-28T06:03:10;5.80;;;3.75;;
11066;SDS011;29763;50.904;5.530;2023-07-28T06:05:38;7.05;;;3.42;;
11066;SDS011;29763;50.904;5.530;2023-07-28T06:08:05;4.45;;;3.47;;
11066;SDS011;29763;50.904;5.530;2023-07-28T06:10:31;6.13;;;3.42;;
11066;SDS011;29763;50.904;5.530;2023-07-28T06:12:58;4.03;;;3.45;;
11066;SDS011;29763;50.904;5.530;2023-07-28T06:15:29;4.15;;;3.35;;
11066;SDS011;29763;50.904;5.530;2023-07-28T06:17:55;5.15;;;3.45;;
11066;SDS011;29763;50.904;5.530;2023-07-28T06:20:21;4.72;;;3.30;;
11066;SDS011;29763;50.904;5.530;2023-07-28T06:22:47;3.95;;;3.50;;
11066;SDS011;29763;50.904;5.530;2023-07-28T06:25:13;3.72;;;3.30;;
11066;SDS011;29763;50.904;5.530;2023-07-28T06:27:40;6.60;;;3.28;;
11066;SDS011;29763;50.904;5.530;2023-07-28T06:30:09;3.22;;;2.92;;
11066;SDS011;29763;50.904;5.530;2023-07-28T06:32:35;5.32;;;2.90;;
11066;SDS011;29763;50.904;5.530;2023-07-28T06:35:01;5.25;;;2.92;;
11066;SDS011;29763;50.904;5.530;2023-07-28T06:37:29;4.90;;;3.03;;
11066;SDS011;29763;50.904;5.530;2023-07-28T06:39:56;5.72;;;3.10;;
11066;SDS011;29763;50.904;5.530;2023-07-28T06:42:21;4.35;;;2.65;;
11066;SDS011;29763;50.904;5.530;2023-07-28T06:44:52;6.50;;;3.15;;
11066;SDS011;29763;50.904;5.530;2023-07-28T06:47:17;3.15;;;2.90;;
11066;SDS011;29763;50.904;5.530;2023-07-28T06:49:45;6.15;;;3.20;;
11066;SDS011;29763;50.904;5.530;2023-07-28T06:52:10;3.80;;;2.95;;
11066;SDS011;29763;50.904;5.530;2023-07-28T06:54:36;4.63;;;2.85;;
11066;SDS011;29763;50.904;5.530;2023-07-28T06:57:02;4.28;;;2.50;;
11066;SDS011;29763;50.904;5.530;2023-07-28T06:59:37;3.95;;;2.42;;
11066;SDS011;29763;50.904;5.530;2023-07-28T07:02:04;3.25;;;2.22;;
11066;SDS011;29763;50.904;5.530;2023-07-28T07:04:32;3.88;;;2.33;;
11066;SDS011;29763;50.904;5.530;2023-07-28T07:06:58;3.42;;;2.42;;
11066;SDS011;29763;50.904;5.530;2023-07-28T07:09:24;4.88;;;2.58;;
11066;SDS011;29763;50.904;5.530;2023-07-28T07:11:52;3.35;;;1.95;;
11066;SDS011;29763;50.904;5.530;2023-07-28T07:14:39;4.85;;;2.15;;
11066;SDS011;29763;50.904;5.530;2023-07-28T07:17:04;3.53;;;2.28;;
11066;SDS011;29763;50.904;5.530;2023-07-28T07:19:30;3.33;;;2.10;;
11066;SDS011;29763;50.904;5.530;2023-07-28T07:22:02;2.30;;;2.00;;
11066;SDS011;29763;50.904;5.530;2023-07-28T07:24:31;2.58;;;1.88;;
11066;SDS011;29763;50.904;5.530;2023-07-28T07:27:00;3.20;;;2.03;;
11066;SDS011;29763;50.904;5.530;2023-07-28T07:29:26;3.08;;;2.20;;
11066;SDS011;29763;50.904;5.530;2023-07-28T07:31:51;4.03;;;1.95;;
11066;SDS011;29763;50.904;5.530;2023-07-28T07:34:21;3.28;;;1.92;;
11066;SDS011;29763;50.904;5.530;2023-07-28T07:36:48;3.83;;;1.70;;
11066;SDS011;29763;50.904;5.530;2023-07-28T07:39:15;2.65;;;2.28;;
11066;SDS011;29763;50.904;5.530;2023-07-28T07:41:41;2.78;;;1.90;;
11066;SDS011;29763;50.904;5.530;2023-07-28T07:44:07;2.20;;;2.00;;
11066;SDS011;29763;50.904;5.530;2023-07-28T07:46:32;2.72;;;2.42;;
11066;SDS011;29763;50.904;5.530;2023-07-28T07:49:00;2.33;;;2.08;;
11066;SDS011;29763;50.904;5.530;2023-07-28T07:51:26;2.50;;;2.13;;
11066;SDS011;29763;50.904;5.530;2023-07-28T07:53:56;3.55;;;2.35;;
11066;SDS011;29763;50.904;5.530;2023-07-28T07:56:21;2.42;;;2.00;;
11066;SDS011;29763;50.904;5.530;2023-07-28T07:58:55;2.65;;;2.10;;
11066;SDS011;29763;50.904;5.530;2023-07-28T08:01:21;2.85;;;2.10;;
11066;SDS011;29763;50.904;5.530;2023-07-28T08:03:47;2.55;;;2.17;;
11066;SDS011;29763;50.904;5.530;2023-07-28T08:06:13;3.00;;;2.08;;
11066;SDS011;29763;50.904;5.530;2023-07-28T08:08:39;1.90;;;1.80;;
11066;SDS011;29763;50.904;5.530;2023-07-28T08:11:05;4.13;;;2.13;;
11066;SDS011;29763;50.904;5.530;2023-07-28T08:13:32;2.53;;;1.75;;
11066;SDS011;29763;50.904;5.530;2023-07-28T08:15:58;3.08;;;1.88;;
11066;SDS011;29763;50.904;5.530;2023-07-28T08:18:24;3.70;;;2.10;;
11066;SDS011;29763;50.904;5.530;2023-07-28T08:20:51;2.35;;;1.80;;
11066;SDS011;29763;50.904;5.530;2023-07-28T08:23:17;2.72;;;1.70;;
11066;SDS011;29763;50.904;5.530;2023-07-28T08:25:43;3.28;;;1.80;;
11066;SDS011;29763;50.904;5.530;2023-07-28T08:28:16;2.58;;;2.10;;
11066;SDS011;29763;50.904;5.530;2023-07-28T08:30:42;2.13;;;1.40;;
11066;SDS011;29763;50.904;5.530;2023-07-28T08:33:07;1.63;;;1.50;;
11066;SDS011;29763;50.904;5.530;2023-07-28T08:35:33;2.78;;;1.65;;
11066;SDS011;29763;50.904;5.530;2023-07-28T08:38:02;1.50;;;1.40;;
11066;SDS011;29763;50.904;5.530;2023-07-28T08:40:33;1.90;;;1.48;;
11066;SDS011;29763;50.904;5.530;2023-07-28T08:42:59;2.97;;;1.50;;
11066;SDS011;29763;50.904;5.530;2023-07-28T08:45:25;1.90;;;1.38;;
11066;SDS011;29763;50.904;5.530;2023-07-28T08:47:51;1.33;;;1.23;;
11066;SDS011;29763;50.904;5.530;2023-07-28T08:50:17;1.33;;;1.23;;
11066;SDS011;29763;50.904;5.530;2023-07-28T08:52:45;1.45;;;1.35;;
11066;SDS011;29763;50.904;5.530;2023-07-28T08:55:11;1.50;;;1.40;;
11066;SDS011;29763;50.904;5.530;2023-07-28T08:57:38;1.52;;;1.42;;
11066;SDS011;29763;50.904;5.530;2023-07-28T09:00:08;1.98;;;1.30;;
11066;SDS011;29763;50.904;5.530;2023-07-28T09:02:37;1.50;;;1.20;;
11066;SDS011;29763;50.904;5.530;2023-07-28T09:05:03;2.00;;;1.30;;
11066;SDS011;29763;50.904;5.530;2023-07-28T09:07:34;1.27;;;1.17;;
11066;SDS011;29763;50.904;5.530;2023-07-28T09:10:04;3.45;;;1.10;;
11066;SDS011;29763;50.904;5.530;2023-07-28T09:12:31;1.40;;;1.30;;
11066;SDS011;29763;50.904;5.530;2023-07-28T09:15:05;2.35;;;1.55;;
11066;SDS011;29763;50.904;5.530;2023-07-28T09:17:41;2.40;;;1.30;;
11066;SDS011;29763;50.904;5.530;2023-07-28T09:20:15;2.80;;;1.30;;
11066;SDS011;29763;50.904;5.530;2023-07-28T09:22:44;1.30;;;1.20;;
11066;SDS011;29763;50.904;5.530;2023-07-28T09:25:13;2.20;;;1.05;;
11066;SDS011;29763;50.904;5.530;2023-07-28T09:27:51;1.10;;;1.00;;
11066;SDS011;29763;50.904;5.530;2023-07-28T09:30:17;1.58;;;1.20;;
11066;SDS011;29763;50.904;5.530;2023-07-28T09:32:49;1.20;;;1.10;;
11066;SDS011;29763;50.904;5.530;2023-07-28T09:35:16;2.53;;;1.10;;
11066;SDS011;29763;50.904;5.530;2023-07-28T09:37:45;1.10;;;1.10;;
11066;SDS011;29763;50.904;5.530;2023-07-28T09:40:19;1.00;;;1.00;;
11066;SDS011;29763;50.904;5.530;2023-07-28T09:42:50;1.33;;;1.10;;
11066;SDS011;29763;50.904;5.530;2023-07-28T09:45:36;1.33;;;1.17;;
11066;SDS011;29763;50.904;5.530;2023-07-28T09:48:06;1.95;;;1.40;;
11066;SDS011;29763;50.904;5.530;2023-07-28T09:50:35;1.55;;;1.20;;
11066;SDS011;29763;50.904;5.530;2023-07-28T09:53:03;2.10;;;1.45;;
11066;SDS011;29763;50.904;5.530;2023-07-28T09:55:33;1.83;;;1.30;;
11066;SDS011;29763;50.904;5.530;2023-07-28T09:58:09;1.27;;;1.20;;
11066;SDS011;29763;50.904;5.530;2023-07-28T10:00:37;1.67;;;1.30;;
11066;SDS011;29763;50.904;5.530;2023-07-28T10:03:03;2.70;;;1.17;;
11066;SDS011;29763;50.904;5.530;2023-07-28T10:05:31;1.38;;;1.27;;
11066;SDS011;29763;50.904;5.530;2023-07-28T10:07:59;1.20;;;1.10;;
11066;SDS011;29763;50.904;5.530;2023-07-28T10:10:27;1.35;;;1.10;;
11066;SDS011;29763;50.904;5.530;2023-07-28T10:12:54;1.80;;;1.40;;
11066;SDS011;29763;50.904;5.530;2023-07-28T10:15:27;1.48;;;1.10;;
11066;SDS011;29763;50.904;5.530;2023-07-28T10:17:55;2.25;;;1.30;;
11066;SDS011;29763;50.904;5.530;2023-07-28T10:20:38;1.77;;;1.33;;
11066;SDS011;29763;50.904;5.530;2023-07-28T10:25:58;2.15;;;1.35;;
11066;SDS011;29763;50.904;5.530;2023-07-28T10:36:43;1.70;;;1.25;;
11066;SDS011;29763;50.904;5.530;2023-07-28T10:44:32;1.40;;;1.30;;
11066;SDS011;29763;50.904;5.530;2023-07-28T10:47:01;1.83;;;1.38;;
11066;SDS011;29763;50.904;5.530;2023-07-28T10:49:32;2.80;;;1.23;;
11066;SDS011;29763;50.904;5.530;2023-07-28T10:51:59;2.67;;;1.30;;
11066;SDS011;29763;50.904;5.530;2023-07-28T10:54:25;1.10;;;1.00;;
11066;SDS011;29763;50.904;5.530;2023-07-28T10:56:53;1.45;;;1.30;;
11066;SDS011;29763;50.904;5.530;2023-07-28T10:59:20;1.10;;;1.10;;
11066;SDS011;29763;50.904;5.530;2023-07-28T11:01:46;1.75;;;1.20;;
11066;SDS011;29763;50.904;5.530;2023-07-28T11:04:19;1.08;;;1.00;;
11066;SDS011;29763;50.904;5.530;2023-07-28T11:06:48;1.15;;;1.05;;
11066;SDS011;29763;50.904;5.530;2023-07-28T11:09:17;1.98;;;1.65;;
11066;SDS011;29763;50.904;5.530;2023-07-28T11:11:50;1.60;;;1.30;;
11066;SDS011;29763;50.904;5.530;2023-07-28T11:14:17;1.50;;;1.40;;
11066;SDS011;29763;50.904;5.530;2023-07-28T11:16:43;1.70;;;1.60;;
11066;SDS011;29763;50.904;5.530;2023-07-28T11:19:15;2.38;;;1.60;;
11066;SDS011;29763;50.904;5.530;2023-07-28T11:21:44;1.80;;;1.70;;
11066;SDS011;29763;50.904;5.530;2023-07-28T11:24:17;1.70;;;1.60;;
11066;SDS011;29763;50.904;5.530;2023-07-28T11:26:45;2.15;;;2.00;;
11066;SDS011;29763;50.904;5.530;2023-07-28T11:29:11;1.90;;;1.80;;
11066;SDS011;29763;50.904;5.530;2023-07-28T11:31:37;1.80;;;1.70;;
11066;SDS011;29763;50.904;5.530;2023-07-28T11:34:21;2.25;;;1.60;;
11066;SDS011;29763;50.904;5.530;2023-07-28T11:36:49;3.85;;;2.00;;
11066;SDS011;29763;50.904;5.530;2023-07-28T11:39:16;2.90;;;1.80;;
11066;SDS011;29763;50.904;5.530;2023-07-28T11:41:49;2.20;;;1.88;;
11066;SDS011;29763;50.904;5.530;2023-07-28T11:44:21;2.00;;;1.90;;
11066;SDS011;29763;50.904;5.530;2023-07-28T11:46:49;2.40;;;2.20;;
11066;SDS011;29763;50.904;5.530;2023-07-28T11:49:21;2.35;;;2.15;;
11066;SDS011;29763;50.904;5.530;2023-07-28T11:51:50;2.20;;;2.05;;
11066;SDS011;29763;50.904;5.530;2023-07-28T11:54:21;2.03;;;1.92;;
11066;SDS011;29763;50.904;5.530;2023-07-28T11:56:57;3.13;;;2.40;;
11066;SDS011;29763;50.904;5.530;2023-07-28T11:59:23;2.97;;;2.60;;
11066;SDS011;29763;50.904;5.530;2023-07-28T12:04:38;2.47;;;2.38;;
11066;SDS011;29763;50.904;5.530;2023-07-28T12:10:03;2.58;;;2.35;;
11066;SDS011;29763;50.904;5.530;2023-07-28T12:12:44;3.75;;;2.92;;
11066;SDS011;29763;50.904;5.530;2023-07-28T12:15:24;3.13;;;2.47;;
11066;SDS011;29763;50.904;5.530;2023-07-28T12:20:36;2.40;;;2.30;;
11066;SDS011;29763;50.904;5.530;2023-07-28T12:23:03;2.67;;;2.47;;
11066;SDS011;29763;50.904;5.530;2023-07-28T12:25:30;2.35;;;2.15;;
11066;SDS011;29763;50.904;5.530;2023-07-28T12:27:56;1.92;;;1.83;;
11066;SDS011;29763;50.904;5.530;2023-07-28T12:30:22;1.90;;;1.80;;
11066;SDS011;29763;50.904;5.530;2023-07-28T12:32:54;1.88;;;1.77;;
11066;SDS011;29763;50.904;5.530;2023-07-28T12:35:21;1.75;;;1.65;;
11066;SDS011;29763;50.904;5.530;2023-07-28T12:37:49;2.05;;;1.85;;
11066;SDS011;29763;50.904;5.530;2023-07-28T12:40:16;1.60;;;1.50;;
11066;SDS011;29763;50.904;5.530;2023-07-28T12:42:41;3.60;;;1.60;;
11066;SDS011;29763;50.904;5.530;2023-07-28T12:45:09;1.92;;;1.40;;
11066;SDS011;29763;50.904;5.530;2023-07-28T12:47:36;1.35;;;1.25;;
11066;SDS011;29763;50.904;5.530;2023-07-28T12:50:02;1.20;;;1.10;;
11066;SDS011;29763;50.904;5.530;2023-07-28T12:52:30;0.98;;;0.98;;
11066;SDS011;29763;50.904;5.530;2023-07-28T12:54:57;1.00;;;1.00;;
11066;SDS011;29763;50.904;5.530;2023-07-28T12:57:26;1.88;;;1.25;;
11066;SDS011;29763;50.904;5.530;2023-07-28T12:59:51;1.60;;;1.20;;
11066;SDS011;29763;50.904;5.530;2023-07-28T13:02:17;1.33;;;1.10;;
11066;SDS011;29763;50.904;5.530;2023-07-28T13:04:46;2.85;;;1.50;;
11066;SDS011;29763;50.904;5.530;2023-07-28T13:07:12;2.05;;;1.48;;
11066;SDS011;29763;50.904;5.530;2023-07-28T13:09:37;1.63;;;1.30;;
11066;SDS011;29763;50.904;5.530;2023-07-28T13:12:07;1.20;;;1.10;;
11066;SDS011;29763;50.904;5.530;2023-07-28T13:14:35;1.08;;;1.08;;
11066;SDS011;29763;50.904;5.530;2023-07-28T13:17:11;2.50;;;1.30;;
11066;SDS011;29763;50.904;5.530;2023-07-28T13:19:42;1.27;;;1.08;;
11066;SDS011;29763;50.904;5.530;2023-07-28T13:22:08;2.40;;;1.40;;
11066;SDS011;29763;50.904;5.530;2023-07-28T13:24:35;1.83;;;1.30;;
11066;SDS011;29763;50.904;5.530;2023-07-28T13:27:03;1.75;;;1.60;;
11066;SDS011;29763;50.904;5.530;2023-07-28T13:29:29;2.00;;;1.60;;
11066;SDS011;29763;50.904;5.530;2023-07-28T13:31:57;1.45;;;1.38;;
11066;SDS011;29763;50.904;5.530;2023-07-28T13:34:27;1.80;;;1.70;;
11066;SDS011;29763;50.904;5.530;2023-07-28T13:37:01;1.77;;;1.65;;
11066;SDS011;29763;50.904;5.530;2023-07-28T13:39:30;1.67;;;1.58;;
11066;SDS011;29763;50.904;5.530;2023-07-28T13:41:55;1.60;;;1.48;;
11066;SDS011;29763;50.904;5.530;2023-07-28T13:44:21;1.98;;;1.70;;
11066;SDS011;29763;50.904;5.530;2023-07-28T13:46:48;1.75;;;1.60;;
11066;SDS011;29763;50.904;5.530;2023-07-28T13:49:15;4.18;;;1.80;;
11066;SDS011;29763;50.904;5.530;2023-07-28T13:51:42;2.60;;;1.48;;
11066;SDS011;29763;50.904;5.530;2023-07-28T13:54:10;2.00;;;1.42;;
11066;SDS011;29763;50.904;5.530;2023-07-28T13:56:36;1.98;;;1.20;;
11066;SDS011;29763;50.904;5.530;2023-07-28T13:59:03;1.77;;;1.67;;
11066;SDS011;29763;50.904;5.530;2023-07-28T14:01:28;3.20;;;1.90;;
11066;SDS011;29763;50.904;5.530;2023-07-28T14:03:54;1.73;;;1.63;;
11066;SDS011;29763;50.904;5.530;2023-07-28T14:06:22;1.75;;;1.65;;
11066;SDS011;29763;50.904;5.530;2023-07-28T14:08:55;1.50;;;1.40;;
11066;SDS011;29763;50.904;5.530;2023-07-28T14:11:22;1.60;;;1.50;;
11066;SDS011;29763;50.904;5.530;2023-07-28T14:13:49;2.38;;;1.50;;
11066;SDS011;29763;50.904;5.530;2023-07-28T14:16:18;1.52;;;1.40;;
11066;SDS011;29763;50.904;5.530;2023-07-28T14:18:48;2.78;;;1.70;;
11066;SDS011;29763;50.904;5.530;2023-07-28T14:21:15;2.03;;;1.38;;
11066;SDS011;29763;50.904;5.530;2023-07-28T14:23:41;1.98;;;1.20;;
11066;SDS011;29763;50.904;5.530;2023-07-28T14:26:08;1.50;;;1.40;;
11066;SDS011;29763;50.904;5.530;2023-07-28T14:28:34;1.50;;;1.40;;
11066;SDS011;29763;50.904;5.530;2023-07-28T14:31:02;1.38;;;1.30;;
11066;SDS011;29763;50.904;5.530;2023-07-28T14:33:29;2.40;;;1.40;;
11066;SDS011;29763;50.904;5.530;2023-07-28T14:35:55;1.77;;;1.48;;
11066;SDS011;29763;50.904;5.530;2023-07-28T14:38:22;1.50;;;1.40;;
11066;SDS011;29763;50.904;5.530;2023-07-28T14:40:47;1.63;;;1.50;;
11066;SDS011;29763;50.904;5.530;2023-07-28T14:43:17;1.40;;;1.30;;
11066;SDS011;29763;50.904;5.530;2023-07-28T14:45:43;2.53;;;1.50;;
11066;SDS011;29763;50.904;5.530;2023-07-28T14:48:09;1.40;;;1.30;;
11066;SDS011;29763;50.904;5.530;2023-07-28T14:50:35;2.97;;;1.45;;
11066;SDS011;29763;50.904;5.530;2023-07-28T14:53:26;1.55;;;1.30;;
11066;SDS011;29763;50.904;5.530;2023-07-28T14:56:04;2.72;;;1.52;;
11066;SDS011;29763;50.904;5.530;2023-07-28T14:58:31;2.00;;;1.60;;
11066;SDS011;29763;50.904;5.530;2023-07-28T15:00:58;2.75;;;1.35;;
11066;SDS011;29763;50.904;5.530;2023-07-28T15:03:26;1.80;;;1.70;;
11066;SDS011;29763;50.904;5.530;2023-07-28T15:05:53;1.63;;;1.52;;
11066;SDS011;29763;50.904;5.530;2023-07-28T15:08:29;1.55;;;1.40;;
11066;SDS011;29763;50.904;5.530;2023-07-28T15:10:57;2.35;;;1.52;;
11066;SDS011;29763;50.904;5.530;2023-07-28T15:13:23;1.58;;;1.48;;
11066;SDS011;29763;50.904;5.530;2023-07-28T15:15:49;1.85;;;1.55;;
11066;SDS011;29763;50.904;5.530;2023-07-28T15:18:25;2.42;;;1.58;;
11066;SDS011;29763;50.904;5.530;2023-07-28T15:20:50;2.15;;;1.70;;